createdAt,value
2018-06-22T00:00:11.594Z,7.40
2018-06-22T00:01:11.582Z,8.10
2018-06-22T00:02:11.571Z,9.60
2018-06-22T00:03:11.566Z,7.00
2018-06-22T00:04:11.558Z,5.60
2018-06-22T00:05:11.554Z,4.60
2018-06-22T00:06:11.547Z,4.30
2018-06-22T00:07:11.535Z,5.10
2018-06-22T00:08:11.527Z,5.80
2018-06-22T00:09:11.516Z,5.10
2018-06-22T00:10:11.507Z,6.00
2018-06-22T00:11:11.501Z,5.50
2018-06-22T00:12:11.494Z,5.80
2018-06-22T00:13:11.489Z,6.80
2018-06-22T00:14:11.538Z,7.20
2018-06-22T00:15:11.472Z,8.40
2018-06-22T00:16:11.461Z,7.40
2018-06-22T00:17:11.453Z,5.40
2018-06-22T00:18:11.460Z,3.90
2018-06-22T00:19:11.441Z,6.70
2018-06-22T00:20:11.432Z,4.90
2018-06-22T00:21:11.422Z,5.70
2018-06-22T00:22:11.419Z,3.90
2018-06-22T00:23:11.406Z,7.70
2018-06-22T00:24:11.395Z,7.40
2018-06-22T00:25:11.391Z,4.80
2018-06-22T00:26:11.403Z,4.60
2018-06-22T00:27:11.375Z,8.90
2018-06-22T00:28:11.366Z,5.40
2018-06-22T00:29:11.361Z,7.60
2018-06-22T00:30:11.348Z,8.10
2018-06-22T00:31:11.341Z,6.90
2018-06-22T00:32:11.331Z,5.30
2018-06-22T00:33:11.325Z,7.40
2018-06-22T00:34:11.323Z,6.10
2018-06-22T00:35:11.312Z,5.80
2018-06-22T00:36:11.302Z,7.00
2018-06-22T00:37:11.290Z,7.50
2018-06-22T00:38:11.283Z,6.90
2018-06-22T00:39:11.282Z,6.40
2018-06-22T00:40:11.266Z,7.80
2018-06-22T00:41:11.263Z,4.90
2018-06-22T00:42:11.252Z,4.70
2018-06-22T00:43:11.267Z,6.50
2018-06-22T00:44:11.231Z,8.40
2018-06-22T00:45:11.228Z,8.20
2018-06-22T00:46:11.216Z,5.80
2018-06-22T00:47:11.208Z,11.00
2018-06-22T00:48:11.203Z,8.30
2018-06-22T00:49:11.195Z,7.30
2018-06-22T00:50:11.191Z,7.70
2018-06-22T00:51:11.181Z,4.90
2018-06-22T00:52:11.170Z,7.60
2018-06-22T00:53:11.162Z,7.40
2018-06-22T00:54:11.151Z,5.40
2018-06-22T00:55:11.147Z,8.40
2018-06-22T00:56:11.139Z,7.10
2018-06-22T00:57:11.130Z,6.10
2018-06-22T00:58:11.118Z,8.00
2018-06-22T00:59:11.112Z,7.60
2018-06-22T01:00:11.104Z,10.20
2018-06-22T01:01:11.097Z,5.30
2018-06-22T01:02:11.086Z,6.40
2018-06-22T01:03:11.106Z,5.40
2018-06-22T01:04:11.074Z,7.40
2018-06-22T01:05:11.060Z,7.10
2018-06-22T01:06:11.051Z,4.50
2018-06-22T01:07:11.046Z,4.70
2018-06-22T01:08:11.039Z,6.20
2018-06-22T01:09:11.031Z,6.40
2018-06-22T01:10:11.024Z,6.90
2018-06-22T01:11:11.020Z,7.60
2018-06-22T01:12:11.001Z,4.40
2018-06-22T01:13:10.996Z,4.90
2018-06-22T01:14:10.989Z,6.80
2018-06-22T01:15:10.987Z,9.90
2018-06-22T01:16:10.998Z,6.90
2018-06-22T01:17:10.964Z,5.90
2018-06-22T01:18:10.958Z,6.70
2018-06-22T01:19:10.946Z,6.40
2018-06-22T01:20:10.938Z,5.40
2018-06-22T01:21:10.928Z,8.90
2018-06-22T01:22:10.970Z,7.90
2018-06-22T01:23:10.916Z,9.70
2018-06-22T01:24:10.912Z,6.70
2018-06-22T01:25:10.900Z,6.10
2018-06-22T01:26:10.890Z,6.40
2018-06-22T01:27:10.878Z,9.10
2018-06-22T01:28:10.874Z,6.80
2018-06-22T01:29:10.868Z,7.70
2018-06-22T01:30:10.858Z,7.10
2018-06-22T01:31:10.852Z,5.80
2018-06-22T01:32:10.843Z,7.40
2018-06-22T01:33:10.833Z,6.00
2018-06-22T01:34:10.821Z,6.30
2018-06-22T01:35:10.822Z,5.90
2018-06-22T01:36:10.817Z,6.10
2018-06-22T01:37:10.808Z,8.30
2018-06-22T01:38:10.794Z,7.10
2018-06-22T01:39:10.785Z,7.40
2018-06-22T01:40:10.771Z,7.10
2018-06-22T01:41:10.763Z,8.50
2018-06-22T01:42:10.763Z,6.90
2018-06-22T01:43:10.752Z,9.00
2018-06-22T01:44:10.743Z,5.60
2018-06-22T01:45:10.736Z,6.80
2018-06-22T01:46:10.722Z,8.20
2018-06-22T01:47:10.716Z,6.50
2018-06-22T01:48:10.707Z,7.20
2018-06-22T01:49:10.697Z,9.10
2018-06-22T01:50:10.695Z,9.40
2018-06-22T01:51:10.687Z,9.00
2018-06-22T01:52:10.679Z,13.00
2018-06-22T01:53:10.664Z,7.10
2018-06-22T01:54:10.656Z,6.70
2018-06-22T01:55:10.648Z,9.40
2018-06-22T01:56:10.643Z,4.30
2018-06-22T01:57:10.640Z,9.30
2018-06-22T01:58:10.627Z,5.10
2018-06-22T01:59:10.621Z,10.70
2018-06-22T02:00:10.607Z,6.30
2018-06-22T02:01:10.599Z,6.70
2018-06-22T02:02:10.592Z,7.30
2018-06-22T02:03:10.583Z,8.40
2018-06-22T02:04:10.584Z,7.90
2018-06-22T02:05:10.571Z,6.80
2018-06-22T02:06:10.562Z,9.60
2018-06-22T02:07:10.624Z,8.80
2018-06-22T02:08:10.541Z,7.40
2018-06-22T02:09:10.535Z,10.30
2018-06-22T02:10:10.526Z,7.00
2018-06-22T02:11:10.524Z,9.00
2018-06-22T02:12:10.514Z,7.40
2018-06-22T02:13:10.507Z,6.80
2018-06-22T02:14:10.497Z,9.90
2018-06-22T02:15:10.487Z,9.10
2018-06-22T02:16:10.481Z,6.50
2018-06-22T02:17:10.469Z,10.10
2018-06-22T02:18:10.465Z,8.20
2018-06-22T02:19:10.457Z,9.30
2018-06-22T02:20:10.452Z,7.40
2018-06-22T02:21:10.436Z,6.40
2018-06-22T02:22:10.440Z,7.60
2018-06-22T02:23:10.419Z,6.90
2018-06-22T02:24:10.411Z,8.00
2018-06-22T02:25:10.410Z,14.50
2018-06-22T02:26:10.400Z,7.80
2018-06-22T02:27:10.391Z,7.30
2018-06-22T02:28:10.399Z,10.00
2018-06-22T02:29:10.373Z,8.20
2018-06-22T02:30:10.363Z,7.80
2018-06-22T02:31:10.358Z,8.50
2018-06-22T02:32:10.354Z,8.90
2018-06-22T02:33:10.341Z,9.30
2018-06-22T02:34:10.337Z,6.70
2018-06-22T02:35:10.325Z,8.60
2018-06-22T02:36:10.316Z,5.60
2018-06-22T02:37:10.311Z,9.10
2018-06-22T02:38:10.303Z,9.70
2018-06-22T02:39:10.293Z,7.30
2018-06-22T02:40:10.284Z,8.40
2018-06-22T02:41:10.279Z,7.60
2018-06-22T02:42:10.267Z,9.10
2018-06-22T02:43:10.258Z,12.30
2018-06-22T02:44:10.250Z,7.50
2018-06-22T02:45:10.243Z,9.20
2018-06-22T02:46:10.230Z,8.20
2018-06-22T02:47:10.229Z,5.50
2018-06-22T02:48:10.223Z,6.40
2018-06-22T02:49:10.211Z,10.70
2018-06-22T02:50:10.202Z,6.20
2018-06-22T02:51:10.195Z,8.20
2018-06-22T02:52:10.186Z,8.90
2018-06-22T02:53:10.180Z,8.90
2018-06-22T02:54:10.171Z,9.30
2018-06-22T02:55:10.177Z,7.20
2018-06-22T02:56:10.151Z,7.90
2018-06-22T02:57:10.146Z,8.00
2018-06-22T02:58:10.137Z,7.40
2018-06-22T02:59:10.128Z,8.80
2018-06-22T03:00:10.172Z,7.40
2018-06-22T03:01:10.114Z,9.30
2018-06-22T03:02:10.106Z,8.30
2018-06-22T03:03:10.095Z,4.70
2018-06-22T03:04:10.090Z,7.80
2018-06-22T03:05:10.078Z,9.90
2018-06-22T03:06:10.071Z,8.30
2018-06-22T03:07:10.065Z,10.80
2018-06-22T03:08:10.085Z,7.60
2018-06-22T03:09:10.048Z,9.00
2018-06-22T03:10:10.040Z,8.30
2018-06-22T03:11:10.029Z,9.60
2018-06-22T03:12:10.029Z,7.90
2018-06-22T03:13:10.016Z,9.90
2018-06-22T03:14:10.030Z,10.90
2018-06-22T03:15:10.007Z,7.60
2018-06-22T03:16:09.991Z,8.20
2018-06-22T03:17:09.982Z,6.90
2018-06-22T03:18:09.979Z,7.60
2018-06-22T03:19:09.964Z,7.90
2018-06-22T03:20:09.959Z,11.10
2018-06-22T03:21:09.966Z,10.60
2018-06-22T03:22:09.947Z,5.80
2018-06-22T03:23:09.943Z,7.60
2018-06-22T03:24:09.924Z,9.30
2018-06-22T03:25:09.916Z,7.90
2018-06-22T03:26:09.908Z,7.80
2018-06-22T03:27:09.898Z,10.50
2018-06-22T03:28:09.897Z,6.20
2018-06-22T03:29:09.886Z,6.30
2018-06-22T03:30:09.889Z,10.30
2018-06-22T03:31:09.868Z,9.60
2018-06-22T03:32:09.866Z,9.60
2018-06-22T03:33:09.850Z,8.00
2018-06-22T03:34:09.852Z,9.30
2018-06-22T03:35:09.840Z,8.20
2018-06-22T03:36:09.827Z,10.40
2018-06-22T03:37:09.821Z,8.90
2018-06-22T03:38:09.813Z,10.00
2018-06-22T03:39:09.800Z,6.60
2018-06-22T03:40:09.792Z,8.60
2018-06-22T03:41:09.788Z,7.70
2018-06-22T03:42:09.779Z,9.20
2018-06-22T03:43:09.769Z,7.70
2018-06-22T03:44:09.759Z,12.30
2018-06-22T03:45:09.751Z,9.20
2018-06-22T03:46:09.743Z,11.60
2018-06-22T03:47:09.735Z,10.40
2018-06-22T03:48:09.723Z,8.40
2018-06-22T03:49:09.723Z,9.40
2018-06-22T03:50:09.712Z,12.30
2018-06-22T03:51:09.702Z,10.50
2018-06-22T03:52:09.692Z,8.60
2018-06-22T03:53:09.687Z,10.80
2018-06-22T03:54:09.678Z,8.50
2018-06-22T03:55:09.669Z,9.10
2018-06-22T03:56:09.663Z,7.70
2018-06-22T03:57:09.657Z,9.20
2018-06-22T03:58:09.646Z,7.60
2018-06-22T03:59:09.634Z,13.70
2018-06-22T04:00:09.630Z,9.10
2018-06-22T04:01:09.620Z,15.00
2018-06-22T04:02:09.614Z,11.20
2018-06-22T04:03:09.607Z,9.80
2018-06-22T04:04:09.598Z,9.80
2018-06-22T04:05:09.589Z,8.60
2018-06-22T04:06:09.579Z,10.80
2018-06-22T04:07:09.569Z,8.50
2018-06-22T04:08:09.586Z,12.00
2018-06-22T04:09:09.557Z,9.70
2018-06-22T04:10:09.548Z,9.20
2018-06-22T04:11:09.535Z,9.40
2018-06-22T04:12:09.531Z,8.30
2018-06-22T04:13:09.526Z,11.60
2018-06-22T04:14:09.514Z,11.70
2018-06-22T04:15:09.503Z,11.70
2018-06-22T04:16:09.495Z,9.00
2018-06-22T04:17:09.488Z,7.30
2018-06-22T04:18:09.482Z,10.70
2018-06-22T04:19:09.472Z,10.70
2018-06-22T04:20:09.464Z,10.30
2018-06-22T04:21:09.454Z,9.70
2018-06-22T04:22:09.453Z,11.80
2018-06-22T04:23:09.436Z,9.90
2018-06-22T04:24:09.427Z,10.90
2018-06-22T04:25:09.436Z,9.70
2018-06-22T04:26:09.416Z,12.00
2018-06-22T04:27:09.449Z,11.10
2018-06-22T04:28:09.395Z,9.70
2018-06-22T04:29:09.387Z,14.60
2018-06-22T04:30:09.378Z,10.70
2018-06-22T04:31:09.370Z,9.00
2018-06-22T04:32:09.366Z,11.60
2018-06-22T04:33:09.357Z,10.30
2018-06-22T04:34:09.349Z,9.50
2018-06-22T04:35:09.340Z,8.90
2018-06-22T04:36:09.330Z,11.30
2018-06-22T04:37:09.321Z,9.10
2018-06-22T04:38:09.316Z,11.90
2018-06-22T04:39:09.309Z,10.90
2018-06-22T04:40:09.295Z,11.10
2018-06-22T04:41:09.292Z,13.00
2018-06-22T04:42:09.287Z,11.00
2018-06-22T04:43:09.270Z,14.20
2018-06-22T04:44:09.262Z,10.90
2018-06-22T04:45:09.255Z,11.90
2018-06-22T04:46:09.249Z,14.20
2018-06-22T04:47:09.241Z,9.90
2018-06-22T04:48:09.234Z,14.90
2018-06-22T04:49:09.227Z,14.10
2018-06-22T04:50:09.214Z,14.00
2018-06-22T04:51:09.206Z,10.20
2018-06-22T04:52:09.195Z,9.50
2018-06-22T04:53:09.194Z,12.30
2018-06-22T04:54:09.185Z,14.60
2018-06-22T04:55:09.174Z,13.50
2018-06-22T04:56:09.178Z,14.20
2018-06-22T04:57:09.158Z,16.80
2018-06-22T04:58:09.152Z,14.10
2018-06-22T04:59:09.140Z,10.10
2018-06-22T05:00:09.134Z,13.80
2018-06-22T05:01:09.131Z,12.50
2018-06-22T05:02:09.117Z,15.50
2018-06-22T05:03:09.108Z,16.30
2018-06-22T05:04:09.097Z,17.30
2018-06-22T05:05:09.094Z,12.90
2018-06-22T05:06:09.085Z,13.30
2018-06-22T05:07:09.078Z,13.30
2018-06-22T05:08:09.066Z,12.60
2018-06-22T05:09:09.054Z,13.50
2018-06-22T05:10:09.050Z,10.90
2018-06-22T05:11:09.037Z,11.70
2018-06-22T05:12:09.039Z,13.10
2018-06-22T05:13:09.022Z,10.80
2018-06-22T05:14:09.016Z,13.70
2018-06-22T05:15:09.008Z,13.00
2018-06-22T05:16:08.998Z,10.80
2018-06-22T05:17:08.991Z,8.10
2018-06-22T05:18:08.977Z,10.90
2018-06-22T05:19:08.968Z,13.70
2018-06-22T05:20:08.995Z,11.50
2018-06-22T05:21:08.953Z,14.30
2018-06-22T05:22:08.945Z,13.70
2018-06-22T05:23:08.941Z,13.00
2018-06-22T05:24:08.924Z,17.20
2018-06-22T05:25:08.919Z,17.20
2018-06-22T05:26:08.934Z,13.30
2018-06-22T05:27:08.901Z,18.50
2018-06-22T05:28:08.890Z,13.80
2018-06-22T05:29:08.887Z,18.10
2018-06-22T05:30:08.875Z,15.40
2018-06-22T05:31:08.872Z,13.10
2018-06-22T05:32:08.856Z,14.50
2018-06-22T05:33:08.845Z,15.90
2018-06-22T05:34:08.840Z,13.00
2018-06-22T05:35:08.833Z,17.60
2018-06-22T05:36:08.823Z,13.10
2018-06-22T05:37:08.813Z,14.60
2018-06-22T05:38:08.807Z,12.00
2018-06-22T05:39:08.801Z,20.10
2018-06-22T05:40:08.789Z,11.40
2018-06-22T05:41:08.788Z,13.10
2018-06-22T05:42:08.767Z,12.90
2018-06-22T05:43:08.764Z,16.60
2018-06-22T05:44:08.762Z,16.40
2018-06-22T05:45:08.748Z,15.20
2018-06-22T05:46:08.739Z,12.70
2018-06-22T05:47:08.725Z,18.90
2018-06-22T05:48:08.717Z,11.50
2018-06-22T05:49:08.709Z,16.60
2018-06-22T05:50:08.703Z,14.60
2018-06-22T05:51:08.694Z,15.00
2018-06-22T05:52:08.684Z,14.90
2018-06-22T05:53:08.678Z,13.80
2018-06-22T05:54:08.668Z,16.60
2018-06-22T05:55:08.657Z,15.10
2018-06-22T05:56:08.648Z,14.70
2018-06-22T05:57:08.645Z,13.80
2018-06-22T05:58:08.636Z,12.30
2018-06-22T05:59:08.627Z,16.30
2018-06-22T06:00:08.615Z,10.80
2018-06-22T06:01:08.604Z,12.80
2018-06-22T06:02:08.597Z,15.60
2018-06-22T06:03:08.590Z,12.70
2018-06-22T06:04:08.583Z,13.90
2018-06-22T06:05:08.572Z,16.60
2018-06-22T06:06:08.566Z,13.10
2018-06-22T06:07:08.558Z,15.30
2018-06-22T06:08:08.546Z,14.30
2018-06-22T06:09:08.538Z,13.20
2018-06-22T06:10:08.539Z,12.20
2018-06-22T06:11:08.547Z,12.50
2018-06-22T06:12:08.519Z,13.10
2018-06-22T06:13:08.509Z,13.00
2018-06-22T06:14:08.510Z,14.40
2018-06-22T06:15:08.493Z,10.40
2018-06-22T06:16:08.492Z,12.20
2018-06-22T06:17:08.481Z,13.30
2018-06-22T06:18:08.465Z,10.50
2018-06-22T06:19:08.460Z,13.40
2018-06-22T06:20:08.576Z,14.80
2018-06-22T06:21:08.443Z,11.40
2018-06-22T06:22:08.434Z,11.10
2018-06-22T06:23:08.430Z,12.00
2018-06-22T06:24:08.417Z,12.10
2018-06-22T06:25:08.413Z,11.50
2018-06-22T06:26:08.403Z,15.90
2018-06-22T06:27:08.427Z,10.50
2018-06-22T06:28:08.386Z,17.00
2018-06-22T06:29:08.377Z,10.60
2018-06-22T06:30:08.368Z,10.20
2018-06-22T06:31:08.362Z,19.50
2018-06-22T06:32:08.356Z,9.60
2018-06-22T06:33:08.348Z,12.70
2018-06-22T06:34:08.341Z,12.30
2018-06-22T06:35:08.337Z,12.30
2018-06-22T06:36:08.320Z,15.00
2018-06-22T06:37:08.314Z,13.90
2018-06-22T06:38:08.309Z,10.20
2018-06-22T06:39:08.316Z,17.20
2018-06-22T06:40:08.293Z,13.50
2018-06-22T06:41:08.285Z,15.20
2018-06-22T06:42:08.278Z,14.10
2018-06-22T06:43:08.268Z,12.00
2018-06-22T06:44:08.257Z,10.90
2018-06-22T06:45:08.255Z,11.30
2018-06-22T06:46:08.251Z,8.70
2018-06-22T06:47:08.239Z,9.90
2018-06-22T06:48:08.234Z,13.40
2018-06-22T06:49:08.222Z,14.30
2018-06-22T06:50:08.210Z,11.90
2018-06-22T06:51:08.204Z,13.90
2018-06-22T06:52:08.215Z,12.00
2018-06-22T06:53:08.195Z,11.10
2018-06-22T06:54:08.187Z,10.90
2018-06-22T06:55:08.174Z,12.80
2018-06-22T06:56:08.170Z,11.70
2018-06-22T06:57:08.155Z,10.60
2018-06-22T06:58:08.151Z,12.60
2018-06-22T06:59:08.144Z,12.60
2018-06-22T07:00:08.136Z,10.50
2018-06-22T07:01:08.130Z,11.20
2018-06-22T07:02:08.122Z,9.80
2018-06-22T07:03:08.110Z,13.60
2018-06-22T07:04:08.107Z,12.50
2018-06-22T07:05:08.097Z,9.60
2018-06-22T07:06:08.090Z,11.00
2018-06-22T07:07:08.081Z,12.20
2018-06-22T07:08:08.078Z,11.30
2018-06-22T07:09:08.069Z,13.30
2018-06-22T07:10:08.063Z,9.90
2018-06-22T07:11:08.052Z,11.40
2018-06-22T07:12:08.047Z,12.20
2018-06-22T07:13:08.037Z,11.30
2018-06-22T07:14:08.030Z,9.50
2018-06-22T07:15:08.022Z,10.80
2018-06-22T07:16:08.016Z,9.10
2018-06-22T07:17:08.069Z,9.50
2018-06-22T07:18:08.001Z,10.30
2018-06-22T07:19:08.028Z,9.60
2018-06-22T07:20:07.991Z,9.70
2018-06-22T07:21:07.984Z,9.30
2018-06-22T07:22:07.978Z,9.00
2018-06-22T07:23:07.971Z,11.30
2018-06-22T07:24:07.980Z,9.10
2018-06-22T07:25:07.987Z,7.40
2018-06-22T07:26:07.951Z,8.40
2018-06-22T07:27:07.948Z,8.30
2018-06-22T07:28:07.942Z,9.70
2018-06-22T07:29:07.937Z,8.30
2018-06-22T07:30:07.930Z,8.50
2018-06-22T07:31:07.927Z,9.00
2018-06-22T07:32:07.918Z,11.80
2018-06-22T07:33:07.915Z,6.90
2018-06-22T07:34:07.909Z,7.40
2018-06-22T07:35:07.906Z,9.30
2018-06-22T07:36:07.902Z,8.90
2018-06-22T07:37:07.896Z,5.80
2018-06-22T07:38:07.892Z,9.10
2018-06-22T07:39:07.885Z,6.90
2018-06-22T07:40:07.883Z,7.10
2018-06-22T07:41:07.883Z,7.70
2018-06-22T07:42:07.872Z,7.30
2018-06-22T07:43:07.868Z,7.60
2018-06-22T07:44:07.866Z,6.30
2018-06-22T07:45:07.860Z,6.90
2018-06-22T07:46:07.850Z,8.10
2018-06-22T07:47:07.848Z,6.90
2018-06-22T07:48:07.844Z,7.80
2018-06-22T07:49:07.840Z,6.30
2018-06-22T07:50:07.843Z,9.60
2018-06-22T07:51:07.843Z,7.30
2018-06-22T07:52:07.835Z,5.60
2018-06-22T07:53:07.829Z,16.30
2018-06-22T07:54:07.830Z,11.10
2018-06-22T07:55:07.887Z,12.20
2018-06-22T07:56:07.820Z,8.70
2018-06-22T07:57:07.857Z,6.30
2018-06-22T07:58:07.823Z,7.90
2018-06-22T07:59:07.812Z,7.50
2018-06-22T08:00:07.806Z,7.20
2018-06-22T08:01:07.806Z,7.40
2018-06-22T08:02:07.803Z,8.00
2018-06-22T08:03:07.796Z,6.30
2018-06-22T08:04:07.795Z,8.80
2018-06-22T08:05:07.795Z,5.60
2018-06-22T08:06:07.827Z,7.20
2018-06-22T08:07:07.785Z,5.40
2018-06-22T08:08:07.779Z,6.00
2018-06-22T08:09:07.775Z,6.00
2018-06-22T08:10:07.775Z,6.50
2018-06-22T08:11:07.769Z,5.60
2018-06-22T08:12:07.768Z,6.00
2018-06-22T08:13:07.765Z,6.70
2018-06-22T08:14:07.759Z,5.10
2018-06-22T08:15:07.756Z,6.00
2018-06-22T08:16:07.750Z,7.70
2018-06-22T08:17:07.751Z,5.40
2018-06-22T08:18:07.747Z,7.00
2018-06-22T08:19:07.742Z,9.80
2018-06-22T08:20:07.739Z,8.20
2018-06-22T08:21:07.740Z,5.30
2018-06-22T08:22:07.737Z,6.50
2018-06-22T08:23:07.727Z,6.40
2018-06-22T08:24:07.728Z,7.40
2018-06-22T08:25:07.723Z,6.00
2018-06-22T08:26:07.716Z,5.30
2018-06-22T08:27:07.711Z,7.60
2018-06-22T08:28:07.707Z,6.40
2018-06-22T08:29:07.706Z,5.20
2018-06-22T08:30:07.706Z,7.80
2018-06-22T08:31:07.701Z,5.60
2018-06-22T08:32:07.698Z,7.70
2018-06-22T08:33:07.700Z,6.90
2018-06-22T08:34:07.692Z,4.80
2018-06-22T08:35:07.687Z,6.10
2018-06-22T08:36:07.681Z,6.90
2018-06-22T08:37:07.680Z,4.00
2018-06-22T08:38:07.675Z,5.60
2018-06-22T08:39:07.671Z,5.60
2018-06-22T08:40:07.667Z,6.20
2018-06-22T08:41:07.663Z,8.60
2018-06-22T08:42:07.675Z,5.10
2018-06-22T08:43:07.654Z,6.10
2018-06-22T08:44:07.646Z,7.20
2018-06-22T08:45:07.647Z,4.30
2018-06-22T08:46:07.643Z,5.30
2018-06-22T08:47:07.639Z,7.40
2018-06-22T08:48:07.631Z,6.60
2018-06-22T08:49:07.631Z,4.50
2018-06-22T08:50:07.620Z,7.20
2018-06-22T08:51:07.612Z,6.00
2018-06-22T08:52:07.610Z,8.10
2018-06-22T08:53:07.602Z,7.70
2018-06-22T08:54:07.601Z,6.50
2018-06-22T08:55:07.596Z,5.10
2018-06-22T08:56:07.589Z,3.30
2018-06-22T08:57:07.581Z,6.40
2018-06-22T08:58:07.581Z,5.50
2018-06-22T08:59:07.576Z,5.00
2018-06-22T09:00:07.572Z,4.80
2018-06-22T09:01:07.613Z,5.50
2018-06-22T09:02:07.567Z,5.60
2018-06-22T09:03:07.563Z,3.70
2018-06-22T09:04:07.557Z,5.10
2018-06-22T09:05:07.555Z,4.30
2018-06-22T09:06:07.558Z,3.80
2018-06-22T09:07:07.554Z,5.20
2018-06-22T09:08:07.623Z,3.20
2018-06-22T09:09:07.549Z,4.50
2018-06-22T09:10:07.544Z,4.50
2018-06-22T09:11:07.541Z,4.60
2018-06-22T09:12:07.539Z,3.40
2018-06-22T09:13:07.540Z,5.00
2018-06-22T09:14:07.538Z,4.20
2018-06-22T09:15:07.536Z,3.10
2018-06-22T09:16:07.530Z,6.60
2018-06-22T09:17:07.528Z,3.90
2018-06-22T09:18:07.527Z,4.50
2018-06-22T09:19:07.525Z,5.60
2018-06-22T09:20:07.526Z,6.20
2018-06-22T09:21:07.523Z,6.50
2018-06-22T09:22:07.529Z,4.40
2018-06-22T09:23:07.513Z,5.30
2018-06-22T09:24:07.521Z,5.80
2018-06-22T09:25:07.513Z,5.10
2018-06-22T09:26:07.510Z,5.20
2018-06-22T09:27:07.508Z,6.20
2018-06-22T09:28:07.504Z,4.60
2018-06-22T09:29:07.501Z,4.80
2018-06-22T09:30:07.547Z,5.20
2018-06-22T09:31:07.494Z,4.10
2018-06-22T09:32:07.494Z,5.00
2018-06-22T09:33:07.490Z,4.60
2018-06-22T09:34:07.490Z,5.10
2018-06-22T09:35:07.487Z,4.30
2018-06-22T09:36:07.488Z,3.40
2018-06-22T09:37:07.484Z,4.00
2018-06-22T09:38:07.476Z,4.40
2018-06-22T09:39:07.470Z,3.60
2018-06-22T09:40:07.472Z,4.50
2018-06-22T09:41:07.472Z,4.20
2018-06-22T09:42:07.466Z,5.00
2018-06-22T09:43:07.460Z,4.20
2018-06-22T09:44:07.463Z,4.20
2018-06-22T09:45:07.465Z,3.20
2018-06-22T09:46:07.755Z,5.50
2018-06-22T09:47:07.637Z,3.60
2018-06-22T09:48:07.509Z,3.50
2018-06-22T09:49:11.860Z,3.90
2018-06-22T09:50:07.558Z,4.20
2018-06-22T09:51:07.489Z,5.60
2018-06-22T09:52:07.978Z,4.00
2018-06-22T09:53:07.579Z,3.30
2018-06-22T09:54:10.373Z,4.40
2018-06-22T09:55:07.649Z,4.40
2018-06-22T09:56:07.520Z,3.50
2018-06-22T09:57:07.407Z,3.90
2018-06-22T09:58:07.406Z,3.90
2018-06-22T09:59:07.400Z,3.60
2018-06-22T10:00:07.395Z,3.50
2018-06-22T10:01:07.393Z,4.10
2018-06-22T10:02:07.413Z,3.60
2018-06-22T10:03:07.385Z,3.00
2018-06-22T10:04:07.397Z,3.50
2018-06-22T10:05:07.386Z,5.00
2018-06-22T10:06:07.382Z,3.40
2018-06-22T10:07:07.380Z,3.20
2018-06-22T10:08:07.410Z,3.50
2018-06-22T10:09:07.383Z,4.60
2018-06-22T10:10:07.385Z,4.40
2018-06-22T10:11:07.382Z,2.60
2018-06-22T10:12:07.382Z,4.10
2018-06-22T10:13:07.381Z,3.50
2018-06-22T10:14:07.381Z,2.70
2018-06-22T10:15:07.385Z,3.50
2018-06-22T10:16:07.386Z,4.60
2018-06-22T10:17:07.387Z,3.70
2018-06-22T10:18:07.388Z,3.60
2018-06-22T10:19:07.382Z,3.40
2018-06-22T10:20:07.387Z,4.20
2018-06-22T10:21:07.384Z,2.30
2018-06-22T10:22:07.389Z,4.30
2018-06-22T10:23:07.390Z,3.60
2018-06-22T10:24:07.385Z,2.60
2018-06-22T10:25:07.386Z,4.10
2018-06-22T10:26:07.387Z,3.30
2018-06-22T10:27:07.531Z,5.30
2018-06-22T10:28:07.384Z,2.80
2018-06-22T10:29:07.386Z,3.90
2018-06-22T10:30:07.388Z,3.10
2018-06-22T10:31:07.386Z,3.80
2018-06-22T10:32:07.384Z,3.00
2018-06-22T10:33:07.382Z,4.20
2018-06-22T10:34:07.380Z,4.50
2018-06-22T10:35:07.382Z,4.10
2018-06-22T10:36:07.381Z,4.50
2018-06-22T10:37:07.380Z,3.70
2018-06-22T10:38:07.379Z,3.50
2018-06-22T10:39:07.388Z,3.40
2018-06-22T10:40:07.374Z,3.50
2018-06-22T10:41:07.372Z,2.40
2018-06-22T10:42:07.396Z,2.90
2018-06-22T10:43:07.372Z,3.60
2018-06-22T10:44:07.374Z,3.10
2018-06-22T10:45:07.368Z,3.00
2018-06-22T10:46:07.391Z,3.10
2018-06-22T10:47:07.358Z,3.20
2018-06-22T10:48:07.359Z,2.50
2018-06-22T10:49:07.377Z,2.60
2018-06-22T10:50:07.358Z,3.40
2018-06-22T10:51:07.358Z,2.60
2018-06-22T10:52:07.358Z,3.40
2018-06-22T10:53:07.356Z,3.60
2018-06-22T10:54:07.353Z,2.10
2018-06-22T10:55:07.355Z,2.90
2018-06-22T10:56:07.361Z,3.10
2018-06-22T10:57:07.360Z,1.80
2018-06-22T10:58:07.362Z,3.10
2018-06-22T10:59:07.362Z,4.20
2018-06-22T11:00:07.360Z,4.20
2018-06-22T11:01:07.366Z,3.80
2018-06-22T11:02:07.371Z,2.30
2018-06-22T11:03:07.371Z,3.90
2018-06-22T11:04:07.378Z,4.90
2018-06-22T11:05:07.371Z,2.40
2018-06-22T11:06:07.378Z,2.60
2018-06-22T11:07:07.380Z,4.00
2018-06-22T11:08:07.384Z,4.10
2018-06-22T11:09:07.382Z,3.30
2018-06-22T11:10:07.391Z,4.60
2018-06-22T11:11:07.391Z,3.00
2018-06-22T11:12:07.396Z,3.70
2018-06-22T11:13:07.401Z,3.30
2018-06-22T11:14:07.401Z,3.20
2018-06-22T11:15:07.403Z,3.80
2018-06-22T11:16:07.411Z,3.90
2018-06-22T11:17:07.435Z,3.00
2018-06-22T11:18:07.420Z,3.20
2018-06-22T11:19:07.422Z,3.60
2018-06-22T11:20:07.425Z,4.20
2018-06-22T11:21:07.454Z,4.00
2018-06-22T11:22:07.432Z,3.20
2018-06-22T11:23:07.433Z,3.70
2018-06-22T11:24:07.439Z,4.50
2018-06-22T11:25:07.452Z,4.20
2018-06-22T11:26:07.444Z,2.50
2018-06-22T11:27:07.453Z,3.90
2018-06-22T11:28:07.450Z,3.50
2018-06-22T11:29:07.469Z,2.50
2018-06-22T11:30:07.452Z,3.40
2018-06-22T11:31:07.456Z,2.80
2018-06-22T11:32:07.492Z,3.20
2018-06-22T11:33:07.462Z,4.10
2018-06-22T11:34:07.461Z,2.70
2018-06-22T11:35:07.466Z,2.60
2018-06-22T11:36:07.469Z,2.90
2018-06-22T11:37:07.472Z,3.30
2018-06-22T11:38:07.474Z,2.80
2018-06-22T11:39:07.471Z,2.50
2018-06-22T11:40:07.476Z,3.40
2018-06-22T11:41:07.474Z,2.40
2018-06-22T11:42:07.482Z,3.40
2018-06-22T11:43:07.478Z,4.10
2018-06-22T11:44:07.478Z,2.90
2018-06-22T11:45:07.481Z,3.60
2018-06-22T11:46:07.486Z,2.70
2018-06-22T11:47:07.481Z,3.10
2018-06-22T11:48:07.483Z,3.40
2018-06-22T11:49:07.478Z,2.30
2018-06-22T11:50:07.478Z,2.60
2018-06-22T11:51:07.485Z,2.90
2018-06-22T11:52:07.480Z,2.90
2018-06-22T11:53:07.480Z,4.10
2018-06-22T11:54:07.483Z,3.60
2018-06-22T11:55:07.474Z,2.90
2018-06-22T11:56:07.475Z,3.70
2018-06-22T11:57:07.475Z,2.90
2018-06-22T11:58:07.478Z,4.60
2018-06-22T11:59:07.520Z,3.90
2018-06-22T12:00:07.474Z,4.40
2018-06-22T12:01:07.475Z,5.20
2018-06-22T12:02:07.473Z,4.50
2018-06-22T12:03:07.473Z,2.70
2018-06-22T12:04:07.502Z,3.30
2018-06-22T12:05:07.481Z,5.20
2018-06-22T12:06:07.479Z,3.30
2018-06-22T12:07:07.477Z,3.30
2018-06-22T12:08:07.477Z,5.10
2018-06-22T12:09:07.479Z,3.10
2018-06-22T12:10:07.530Z,3.30
2018-06-22T12:11:07.478Z,5.20
2018-06-22T12:12:07.484Z,3.00
2018-06-22T12:13:07.483Z,3.40
2018-06-22T12:14:07.484Z,2.80
2018-06-22T12:15:07.480Z,2.60
2018-06-22T12:16:07.481Z,4.10
2018-06-22T12:17:07.479Z,4.00
2018-06-22T12:18:07.481Z,4.80
2018-06-22T12:19:07.515Z,4.90
2018-06-22T12:20:07.499Z,2.80
2018-06-22T12:21:07.483Z,2.50
2018-06-22T12:22:07.484Z,4.30
2018-06-22T12:23:07.482Z,3.30
2018-06-22T12:24:07.481Z,4.40
2018-06-22T12:25:07.492Z,4.30
2018-06-22T12:26:07.480Z,4.30
2018-06-22T12:27:07.479Z,3.60
2018-06-22T12:28:07.478Z,4.30
2018-06-22T12:29:07.473Z,4.40
2018-06-22T12:30:07.473Z,4.30
2018-06-22T12:31:07.474Z,5.00
2018-06-22T12:32:07.473Z,4.40
2018-06-22T12:33:07.475Z,5.30
2018-06-22T12:34:07.483Z,4.50
2018-06-22T12:35:07.473Z,3.30
2018-06-22T12:36:07.464Z,4.20
2018-06-22T12:37:07.469Z,2.20
2018-06-22T12:38:07.465Z,3.30
2018-06-22T12:39:07.466Z,5.60
2018-06-22T12:40:07.465Z,3.60
2018-06-22T12:41:07.466Z,3.30
2018-06-22T12:42:07.459Z,5.60
2018-06-22T12:43:07.468Z,3.60
2018-06-22T12:44:07.469Z,3.80
2018-06-22T12:45:07.557Z,3.10
2018-06-22T12:46:07.475Z,2.70
2018-06-22T12:47:07.460Z,3.30
2018-06-22T12:48:07.461Z,2.70
2018-06-22T12:49:07.461Z,5.60
2018-06-22T12:50:07.454Z,2.70
2018-06-22T12:51:07.455Z,3.20
2018-06-22T12:52:07.456Z,3.20
2018-06-22T12:53:07.513Z,3.10
2018-06-22T12:54:07.454Z,2.30
2018-06-22T12:55:07.456Z,2.60
2018-06-22T12:56:07.448Z,4.90
2018-06-22T12:57:07.446Z,2.40
2018-06-22T12:58:07.464Z,2.00
2018-06-22T12:59:07.458Z,1.50
2018-06-22T13:00:07.448Z,1.70
2018-06-22T13:01:07.442Z,2.40
2018-06-22T13:02:07.441Z,2.30
2018-06-22T13:03:07.435Z,2.80
2018-06-22T13:04:07.501Z,2.30
2018-06-22T13:05:07.486Z,2.90
2018-06-22T13:06:07.427Z,2.20
2018-06-22T13:07:07.425Z,1.40
2018-06-22T13:08:07.426Z,1.80
2018-06-22T13:09:07.428Z,2.60
2018-06-22T13:10:07.419Z,2.00
2018-06-22T13:11:07.420Z,2.30